Chelsea, Iowa
Current Conditions -  °F | °C
As of 7:15 PM on Tuesday 21 Oct 2014 (Local Time) from KGGI Reporting Station
Clear Clear  
Wind Chill: 51°   Ceiling: Unl
Heat Index: 51°   Visibility: 10mi
Dew Point: 40°   Wind: 7mph
Humidity: 68%   Direction: 100°E
Pressure: 30.17"   Gusts: NA
Location:  41.92°N, 92.39°W
Report Text: KGGI 220015Z AUTO 10006KT 10SM CLR 10/05 A3017 RMK AO2 T01040047
Loading
Personal Weather Stations






























Interactive Weather Map
Tropical Storm Tracking
New forecast layout! Learn more

10-Day Weather Forecast

Advertisements
Track Severe Weather on mobile